sensor_id;sensor_type;location;lat;lon;timestamp;temperature;humidity
48728;DHT22;34527;45.618;5.130;2022-11-13T00:03:43;10.70;99.90
48728;DHT22;34527;45.618;5.130;2022-11-13T00:06:10;10.70;99.90
48728;DHT22;34527;45.618;5.130;2022-11-13T00:08:36;10.70;99.90
48728;DHT22;34527;45.618;5.130;2022-11-13T00:11:11;10.70;99.90
48728;DHT22;34527;45.618;5.130;2022-11-13T00:13:37;10.60;99.90
48728;DHT22;34527;45.618;5.130;2022-11-13T00:16:05;10.60;99.90
48728;DHT22;34527;45.618;5.130;2022-11-13T00:18:34;10.60;99.90
48728;DHT22;34527;45.618;5.130;2022-11-13T00:21:08;10.60;99.90
48728;DHT22;34527;45.618;5.130;2022-11-13T00:23:35;10.50;99.90
48728;DHT22;34527;45.618;5.130;2022-11-13T00:26:22;10.50;99.90
48728;DHT22;34527;45.618;5.130;2022-11-13T00:28:56;10.40;99.90
48728;DHT22;34527;45.618;5.130;2022-11-13T00:31:23;10.50;99.90
48728;DHT22;34527;45.618;5.130;2022-11-13T00:33:49;10.40;99.90
48728;DHT22;34527;45.618;5.130;2022-11-13T00:36:20;10.50;99.90
48728;DHT22;34527;45.618;5.130;2022-11-13T00:38:47;10.50;99.90
48728;DHT22;34527;45.618;5.130;2022-11-13T00:41:13;10.30;99.90
48728;DHT22;34527;45.618;5.130;2022-11-13T00:43:39;10.30;99.90
48728;DHT22;34527;45.618;5.130;2022-11-13T00:46:06;10.20;99.90
48728;DHT22;34527;45.618;5.130;2022-11-13T00:48:32;10.20;99.90
48728;DHT22;34527;45.618;5.130;2022-11-13T00:50:58;10.20;99.90
48728;DHT22;34527;45.618;5.130;2022-11-13T00:53:24;10.30;99.90
48728;DHT22;34527;45.618;5.130;2022-11-13T00:55:50;10.40;99.90
48728;DHT22;34527;45.618;5.130;2022-11-13T00:58:16;10.30;99.90
48728;DHT22;34527;45.618;5.130;2022-11-13T01:00:44;10.30;99.90
48728;DHT22;34527;45.618;5.130;2022-11-13T01:03:11;10.30;99.90
48728;DHT22;34527;45.618;5.130;2022-11-13T01:05:39;10.20;99.90
48728;DHT22;34527;45.618;5.130;2022-11-13T01:08:05;10.20;99.90
48728;DHT22;34527;45.618;5.130;2022-11-13T01:10:32;10.10;99.90
48728;DHT22;34527;45.618;5.130;2022-11-13T01:12:58;10.00;99.90
48728;DHT22;34527;45.618;5.130;2022-11-13T01:15:25;10.00;99.90
48728;DHT22;34527;45.618;5.130;2022-11-13T01:17:51;10.00;99.90
48728;DHT22;34527;45.618;5.130;2022-11-13T01:20:20;10.00;99.90
48728;DHT22;34527;45.618;5.130;2022-11-13T01:22:46;10.10;99.90
48728;DHT22;34527;45.618;5.130;2022-11-13T01:25:12;9.90;99.90
48728;DHT22;34527;45.618;5.130;2022-11-13T01:27:38;9.80;99.90
48728;DHT22;34527;45.618;5.130;2022-11-13T01:30:05;9.90;99.90
48728;DHT22;34527;45.618;5.130;2022-11-13T01:32:31;9.90;99.90
48728;DHT22;34527;45.618;5.130;2022-11-13T01:34:57;10.00;99.90
48728;DHT22;34527;45.618;5.130;2022-11-13T01:37:23;10.10;99.90
48728;DHT22;34527;45.618;5.130;2022-11-13T01:39:48;10.20;99.90
48728;DHT22;34527;45.618;5.130;2022-11-13T01:42:15;10.20;99.90
48728;DHT22;34527;45.618;5.130;2022-11-13T01:44:52;10.20;99.90
48728;DHT22;34527;45.618;5.130;2022-11-13T01:47:18;10.20;99.90
48728;DHT22;34527;45.618;5.130;2022-11-13T01:49:46;10.20;99.90
48728;DHT22;34527;45.618;5.130;2022-11-13T01:54:57;10.20;99.90
48728;DHT22;34527;45.618;5.130;2022-11-13T01:57:25;10.10;99.90
48728;DHT22;34527;45.618;5.130;2022-11-13T01:59:59;10.10;99.90
48728;DHT22;34527;45.618;5.130;2022-11-13T02:02:25;10.10;99.90
48728;DHT22;34527;45.618;5.130;2022-11-13T02:04:51;10.10;99.90
48728;DHT22;34527;45.618;5.130;2022-11-13T02:07:20;10.10;99.90
48728;DHT22;34527;45.618;5.130;2022-11-13T02:09:49;10.10;99.90
48728;DHT22;34527;45.618;5.130;2022-11-13T02:12:24;10.10;99.90
48728;DHT22;34527;45.618;5.130;2022-11-13T02:14:53;10.10;99.90
48728;DHT22;34527;45.618;5.130;2022-11-13T02:17:27;10.10;99.90
48728;DHT22;34527;45.618;5.130;2022-11-13T02:19:57;10.10;99.90
48728;DHT22;34527;45.618;5.130;2022-11-13T02:25:03;10.10;99.90
48728;DHT22;34527;45.618;5.130;2022-11-13T02:27:42;10.10;99.90
48728;DHT22;34527;45.618;5.130;2022-11-13T02:30:18;10.10;99.90
48728;DHT22;34527;45.618;5.130;2022-11-13T02:32:49;10.10;99.90
48728;DHT22;34527;45.618;5.130;2022-11-13T02:35:42;10.00;99.90
48728;DHT22;34527;45.618;5.130;2022-11-13T02:38:08;10.10;99.90
48728;DHT22;34527;45.618;5.130;2022-11-13T02:40:34;10.10;99.90
48728;DHT22;34527;45.618;5.130;2022-11-13T02:42:59;10.10;99.90
48728;DHT22;34527;45.618;5.130;2022-11-13T02:45:25;9.90;99.90
48728;DHT22;34527;45.618;5.130;2022-11-13T02:47:51;9.70;99.90
48728;DHT22;34527;45.618;5.130;2022-11-13T02:50:17;9.90;99.90
48728;DHT22;34527;45.618;5.130;2022-11-13T02:52:43;9.90;99.90
48728;DHT22;34527;45.618;5.130;2022-11-13T02:55:09;10.00;99.90
48728;DHT22;34527;45.618;5.130;2022-11-13T02:57:35;10.00;99.90
48728;DHT22;34527;45.618;5.130;2022-11-13T03:00:02;10.00;99.90
48728;DHT22;34527;45.618;5.130;2022-11-13T03:02:28;9.90;99.90
48728;DHT22;34527;45.618;5.130;2022-11-13T03:04:54;9.90;99.90
48728;DHT22;34527;45.618;5.130;2022-11-13T03:07:20;9.90;99.90
48728;DHT22;34527;45.618;5.130;2022-11-13T03:09:46;9.90;99.90
48728;DHT22;34527;45.618;5.130;2022-11-13T03:12:11;9.70;99.90
48728;DHT22;34527;45.618;5.130;2022-11-13T03:14:37;9.70;99.90
48728;DHT22;34527;45.618;5.130;2022-11-13T03:17:03;9.70;99.90
48728;DHT22;34527;45.618;5.130;2022-11-13T03:19:29;9.80;99.90
48728;DHT22;34527;45.618;5.130;2022-11-13T03:21:55;9.60;99.90
48728;DHT22;34527;45.618;5.130;2022-11-13T03:24:21;9.70;99.90
48728;DHT22;34527;45.618;5.130;2022-11-13T03:26:46;9.80;99.90
48728;DHT22;34527;45.618;5.130;2022-11-13T03:29:13;9.80;99.90
48728;DHT22;34527;45.618;5.130;2022-11-13T03:31:39;9.70;99.90
48728;DHT22;34527;45.618;5.130;2022-11-13T03:34:05;9.70;99.90
48728;DHT22;34527;45.618;5.130;2022-11-13T03:36:31;9.70;99.90
48728;DHT22;34527;45.618;5.130;2022-11-13T03:38:57;9.50;99.90
48728;DHT22;34527;45.618;5.130;2022-11-13T03:41:23;9.60;99.90
48728;DHT22;34527;45.618;5.130;2022-11-13T03:43:49;9.70;99.90
48728;DHT22;34527;45.618;5.130;2022-11-13T03:46:15;9.70;99.90
48728;DHT22;34527;45.618;5.130;2022-11-13T03:48:41;9.70;99.90
48728;DHT22;34527;45.618;5.130;2022-11-13T03:51:06;9.70;99.90
48728;DHT22;34527;45.618;5.130;2022-11-13T03:53:32;9.70;99.90
48728;DHT22;34527;45.618;5.130;2022-11-13T03:55:58;9.70;99.90
48728;DHT22;34527;45.618;5.130;2022-11-13T03:58:24;9.70;99.90
48728;DHT22;34527;45.618;5.130;2022-11-13T04:00:55;9.70;99.90
48728;DHT22;34527;45.618;5.130;2022-11-13T04:03:21;9.70;99.90
48728;DHT22;34527;45.618;5.130;2022-11-13T04:05:48;9.60;99.90
48728;DHT22;34527;45.618;5.130;2022-11-13T04:08:14;9.60;99.90
48728;DHT22;34527;45.618;5.130;2022-11-13T04:10:41;9.60;99.90
48728;DHT22;34527;45.618;5.130;2022-11-13T04:13:07;9.60;99.90
48728;DHT22;34527;45.618;5.130;2022-11-13T04:15:33;9.60;99.90
48728;DHT22;34527;45.618;5.130;2022-11-13T04:17:59;9.60;99.90
48728;DHT22;34527;45.618;5.130;2022-11-13T04:20:25;9.60;99.90
48728;DHT22;34527;45.618;5.130;2022-11-13T04:22:57;9.60;99.90
48728;DHT22;34527;45.618;5.130;2022-11-13T04:25:24;9.60;99.90
48728;DHT22;34527;45.618;5.130;2022-11-13T04:27:50;9.60;99.90
48728;DHT22;34527;45.618;5.130;2022-11-13T04:30:17;9.60;99.90
48728;DHT22;34527;45.618;5.130;2022-11-13T04:32:43;9.60;99.90
48728;DHT22;34527;45.618;5.130;2022-11-13T04:35:09;9.40;99.90
48728;DHT22;34527;45.618;5.130;2022-11-13T04:37:35;9.30;99.90
48728;DHT22;34527;45.618;5.130;2022-11-13T04:40:01;9.30;99.90
48728;DHT22;34527;45.618;5.130;2022-11-13T04:42:27;9.40;99.90
48728;DHT22;34527;45.618;5.130;2022-11-13T04:45:11;9.50;99.90
48728;DHT22;34527;45.618;5.130;2022-11-13T04:47:37;9.50;99.90
48728;DHT22;34527;45.618;5.130;2022-11-13T04:50:04;9.60;99.90
48728;DHT22;34527;45.618;5.130;2022-11-13T04:52:30;9.60;99.90
48728;DHT22;34527;45.618;5.130;2022-11-13T04:54:55;9.60;99.90
48728;DHT22;34527;45.618;5.130;2022-11-13T04:57:22;9.60;99.90
48728;DHT22;34527;45.618;5.130;2022-11-13T04:59:48;9.60;99.90
48728;DHT22;34527;45.618;5.130;2022-11-13T05:02:14;9.60;99.90
48728;DHT22;34527;45.618;5.130;2022-11-13T05:04:40;9.50;99.90
48728;DHT22;34527;45.618;5.130;2022-11-13T05:07:06;9.40;99.90
48728;DHT22;34527;45.618;5.130;2022-11-13T05:09:32;9.30;99.90
48728;DHT22;34527;45.618;5.130;2022-11-13T05:11:58;9.30;99.90
48728;DHT22;34527;45.618;5.130;2022-11-13T05:14:24;9.40;99.90
48728;DHT22;34527;45.618;5.130;2022-11-13T05:16:49;9.30;99.90
48728;DHT22;34527;45.618;5.130;2022-11-13T05:19:16;9.20;99.90
48728;DHT22;34527;45.618;5.130;2022-11-13T05:21:42;9.30;99.90
48728;DHT22;34527;45.618;5.130;2022-11-13T05:24:10;9.30;99.90
48728;DHT22;34527;45.618;5.130;2022-11-13T05:26:37;9.40;99.90
48728;DHT22;34527;45.618;5.130;2022-11-13T05:29:03;9.50;99.90
48728;DHT22;34527;45.618;5.130;2022-11-13T05:31:29;9.40;99.90
48728;DHT22;34527;45.618;5.130;2022-11-13T05:33:55;9.40;99.90
48728;DHT22;34527;45.618;5.130;2022-11-13T05:36:22;9.40;99.90
48728;DHT22;34527;45.618;5.130;2022-11-13T05:38:48;9.40;99.90
48728;DHT22;34527;45.618;5.130;2022-11-13T05:41:19;9.20;99.90
48728;DHT22;34527;45.618;5.130;2022-11-13T05:43:45;9.10;99.90
48728;DHT22;34527;45.618;5.130;2022-11-13T05:46:16;9.10;99.90
48728;DHT22;34527;45.618;5.130;2022-11-13T05:48:43;9.00;99.90
48728;DHT22;34527;45.618;5.130;2022-11-13T05:51:16;9.10;99.90
48728;DHT22;34527;45.618;5.130;2022-11-13T05:53:42;9.20;99.90
48728;DHT22;34527;45.618;5.130;2022-11-13T05:56:17;9.20;99.90
48728;DHT22;34527;45.618;5.130;2022-11-13T05:58:44;9.10;99.90
48728;DHT22;34527;45.618;5.130;2022-11-13T06:01:37;9.10;99.90
48728;DHT22;34527;45.618;5.130;2022-11-13T06:04:05;9.10;99.90
48728;DHT22;34527;45.618;5.130;2022-11-13T06:06:31;9.30;99.90
48728;DHT22;34527;45.618;5.130;2022-11-13T06:08:59;9.20;99.90
48728;DHT22;34527;45.618;5.130;2022-11-13T06:11:27;9.30;99.90
48728;DHT22;34527;45.618;5.130;2022-11-13T06:13:54;9.30;99.90
48728;DHT22;34527;45.618;5.130;2022-11-13T06:16:22;9.30;99.90
48728;DHT22;34527;45.618;5.130;2022-11-13T06:18:49;9.30;99.90
48728;DHT22;34527;45.618;5.130;2022-11-13T06:21:20;9.30;99.90
48728;DHT22;34527;45.618;5.130;2022-11-13T06:23:46;9.30;99.90
48728;DHT22;34527;45.618;5.130;2022-11-13T06:26:16;9.30;99.90
48728;DHT22;34527;45.618;5.130;2022-11-13T06:28:42;9.30;99.90
48728;DHT22;34527;45.618;5.130;2022-11-13T06:31:14;9.30;99.90
48728;DHT22;34527;45.618;5.130;2022-11-13T06:33:41;9.30;99.90
48728;DHT22;34527;45.618;5.130;2022-11-13T06:36:11;9.30;99.90
48728;DHT22;34527;45.618;5.130;2022-11-13T06:38:38;9.30;99.90
48728;DHT22;34527;45.618;5.130;2022-11-13T06:41:05;9.40;99.90
48728;DHT22;34527;45.618;5.130;2022-11-13T06:43:31;9.40;99.90
48728;DHT22;34527;45.618;5.130;2022-11-13T06:45:57;9.30;99.90
48728;DHT22;34527;45.618;5.130;2022-11-13T06:48:24;9.30;99.90
48728;DHT22;34527;45.618;5.130;2022-11-13T06:50:50;9.10;99.90
48728;DHT22;34527;45.618;5.130;2022-11-13T06:53:16;9.00;99.90
48728;DHT22;34527;45.618;5.130;2022-11-13T06:55:46;9.10;99.90
48728;DHT22;34527;45.618;5.130;2022-11-13T06:58:12;9.20;99.90
48728;DHT22;34527;45.618;5.130;2022-11-13T07:00:39;9.20;99.90
48728;DHT22;34527;45.618;5.130;2022-11-13T07:03:05;9.20;99.90
48728;DHT22;34527;45.618;5.130;2022-11-13T07:05:31;9.30;99.90
48728;DHT22;34527;45.618;5.130;2022-11-13T07:07:57;9.30;99.90
48728;DHT22;34527;45.618;5.130;2022-11-13T07:10:22;9.30;99.90
48728;DHT22;34527;45.618;5.130;2022-11-13T07:12:48;9.30;99.90
48728;DHT22;34527;45.618;5.130;2022-11-13T07:15:14;9.30;99.90
48728;DHT22;34527;45.618;5.130;2022-11-13T07:17:41;9.30;99.90
48728;DHT22;34527;45.618;5.130;2022-11-13T07:20:07;9.30;99.90
48728;DHT22;34527;45.618;5.130;2022-11-13T07:22:33;9.10;99.90
48728;DHT22;34527;45.618;5.130;2022-11-13T07:24:59;9.20;99.90
48728;DHT22;34527;45.618;5.130;2022-11-13T07:27:24;9.00;99.90
48728;DHT22;34527;45.618;5.130;2022-11-13T07:29:50;9.10;99.90
48728;DHT22;34527;45.618;5.130;2022-11-13T07:32:16;9.00;99.90
48728;DHT22;34527;45.618;5.130;2022-11-13T07:34:42;9.00;99.90
48728;DHT22;34527;45.618;5.130;2022-11-13T07:37:08;9.10;99.90
48728;DHT22;34527;45.618;5.130;2022-11-13T07:39:34;9.00;99.90
48728;DHT22;34527;45.618;5.130;2022-11-13T07:42:00;9.00;99.90
48728;DHT22;34527;45.618;5.130;2022-11-13T07:44:25;9.00;99.90
48728;DHT22;34527;45.618;5.130;2022-11-13T07:46:51;9.00;99.90
48728;DHT22;34527;45.618;5.130;2022-11-13T07:49:17;8.90;99.90
48728;DHT22;34527;45.618;5.130;2022-11-13T07:51:43;8.90;99.90
48728;DHT22;34527;45.618;5.130;2022-11-13T07:54:09;8.90;99.90
48728;DHT22;34527;45.618;5.130;2022-11-13T07:56:34;8.90;99.90
48728;DHT22;34527;45.618;5.130;2022-11-13T07:59:00;9.00;99.90
48728;DHT22;34527;45.618;5.130;2022-11-13T08:01:26;9.00;99.90
48728;DHT22;34527;45.618;5.130;2022-11-13T08:03:52;9.10;99.90
48728;DHT22;34527;45.618;5.130;2022-11-13T08:06:18;9.20;99.90
48728;DHT22;34527;45.618;5.130;2022-11-13T08:08:46;9.30;99.90
48728;DHT22;34527;45.618;5.130;2022-11-13T08:11:13;9.30;99.90
48728;DHT22;34527;45.618;5.130;2022-11-13T08:13:39;9.30;99.90
48728;DHT22;34527;45.618;5.130;2022-11-13T08:16:05;9.40;99.90
48728;DHT22;34527;45.618;5.130;2022-11-13T08:18:31;9.40;99.90
48728;DHT22;34527;45.618;5.130;2022-11-13T08:21:00;9.40;99.90
48728;DHT22;34527;45.618;5.130;2022-11-13T08:23:27;9.30;99.90
48728;DHT22;34527;45.618;5.130;2022-11-13T08:25:53;9.40;99.90
48728;DHT22;34527;45.618;5.130;2022-11-13T08:28:19;9.40;99.90
48728;DHT22;34527;45.618;5.130;2022-11-13T08:30:45;9.40;99.90
48728;DHT22;34527;45.618;5.130;2022-11-13T08:33:11;9.30;99.90
48728;DHT22;34527;45.618;5.130;2022-11-13T08:35:37;9.30;99.90
48728;DHT22;34527;45.618;5.130;2022-11-13T08:38:05;9.30;99.90
48728;DHT22;34527;45.618;5.130;2022-11-13T08:40:32;9.40;99.90
48728;DHT22;34527;45.618;5.130;2022-11-13T08:42:59;9.40;99.90
48728;DHT22;34527;45.618;5.130;2022-11-13T08:45:25;9.50;99.90
48728;DHT22;34527;45.618;5.130;2022-11-13T08:47:51;9.30;99.90
48728;DHT22;34527;45.618;5.130;2022-11-13T08:50:17;9.30;99.90
48728;DHT22;34527;45.618;5.130;2022-11-13T08:52:43;9.30;99.90
48728;DHT22;34527;45.618;5.130;2022-11-13T08:55:09;9.40;99.90
48728;DHT22;34527;45.618;5.130;2022-11-13T08:57:35;9.40;99.90
48728;DHT22;34527;45.618;5.130;2022-11-13T09:00:00;9.50;99.90
48728;DHT22;34527;45.618;5.130;2022-11-13T09:02:27;9.50;99.90
48728;DHT22;34527;45.618;5.130;2022-11-13T09:04:52;9.50;99.90
48728;DHT22;34527;45.618;5.130;2022-11-13T09:07:18;9.20;99.90
48728;DHT22;34527;45.618;5.130;2022-11-13T09:09:44;9.30;99.90
48728;DHT22;34527;45.618;5.130;2022-11-13T09:12:10;9.40;99.90
48728;DHT22;34527;45.618;5.130;2022-11-13T09:14:36;9.40;99.90
48728;DHT22;34527;45.618;5.130;2022-11-13T09:17:02;9.50;99.90
48728;DHT22;34527;45.618;5.130;2022-11-13T09:19:28;9.60;99.90
48728;DHT22;34527;45.618;5.130;2022-11-13T09:21:54;9.50;99.90
48728;DHT22;34527;45.618;5.130;2022-11-13T09:24:20;9.60;99.90
48728;DHT22;34527;45.618;5.130;2022-11-13T09:26:45;9.60;99.90
48728;DHT22;34527;45.618;5.130;2022-11-13T09:29:11;9.70;99.90
48728;DHT22;34527;45.618;5.130;2022-11-13T09:31:37;9.70;99.90
48728;DHT22;34527;45.618;5.130;2022-11-13T09:34:06;9.60;99.90
48728;DHT22;34527;45.618;5.130;2022-11-13T09:36:32;9.60;99.90
48728;DHT22;34527;45.618;5.130;2022-11-13T09:38:57;9.60;99.90
48728;DHT22;34527;45.618;5.130;2022-11-13T09:41:39;9.70;99.90
48728;DHT22;34527;45.618;5.130;2022-11-13T09:44:17;9.80;99.90
48728;DHT22;34527;45.618;5.130;2022-11-13T09:46:50;9.80;99.90
48728;DHT22;34527;45.618;5.130;2022-11-13T09:49:26;9.90;99.90
48728;DHT22;34527;45.618;5.130;2022-11-13T09:51:57;9.90;99.90
48728;DHT22;34527;45.618;5.130;2022-11-13T09:54:24;10.00;99.90
48728;DHT22;34527;45.618;5.130;2022-11-13T09:59:41;9.80;99.90
48728;DHT22;34527;45.618;5.130;2022-11-13T10:05:28;9.70;99.90
48728;DHT22;34527;45.618;5.130;2022-11-13T10:08:17;9.70;99.90
48728;DHT22;34527;45.618;5.130;2022-11-13T10:11:08;9.80;99.90
48728;DHT22;34527;45.618;5.130;2022-11-13T10:13:38;9.80;99.90
48728;DHT22;34527;45.618;5.130;2022-11-13T10:19:30;9.90;99.90
48728;DHT22;34527;45.618;5.130;2022-11-13T10:24:44;9.90;99.90
48728;DHT22;34527;45.618;5.130;2022-11-13T10:27:12;10.00;99.90
48728;DHT22;34527;45.618;5.130;2022-11-13T10:29:38;10.00;99.90
48728;DHT22;34527;45.618;5.130;2022-11-13T10:32:22;10.10;99.90
48728;DHT22;34527;45.618;5.130;2022-11-13T10:34:58;10.20;99.90
48728;DHT22;34527;45.618;5.130;2022-11-13T10:40:25;10.20;99.90
48728;DHT22;34527;45.618;5.130;2022-11-13T10:42:51;10.20;99.90
48728;DHT22;34527;45.618;5.130;2022-11-13T10:45:18;10.20;99.90
48728;DHT22;34527;45.618;5.130;2022-11-13T10:47:49;10.30;99.90
48728;DHT22;34527;45.618;5.130;2022-11-13T10:50:24;10.20;99.90
48728;DHT22;34527;45.618;5.130;2022-11-13T10:52:53;10.10;99.90
48728;DHT22;34527;45.618;5.130;2022-11-13T10:55:37;10.10;99.90
48728;DHT22;34527;45.618;5.130;2022-11-13T10:58:16;10.30;99.90
48728;DHT22;34527;45.618;5.130;2022-11-13T11:00:43;10.30;99.90
48728;DHT22;34527;45.618;5.130;2022-11-13T11:03:19;10.40;99.90
48728;DHT22;34527;45.618;5.130;2022-11-13T11:06:02;10.30;99.90
48728;DHT22;34527;45.618;5.130;2022-11-13T11:08:31;10.40;99.90
48728;DHT22;34527;45.618;5.130;2022-11-13T11:11:06;10.50;99.90
48728;DHT22;34527;45.618;5.130;2022-11-13T11:13:50;10.50;99.90
48728;DHT22;34527;45.618;5.130;2022-11-13T11:16:20;10.60;99.90
48728;DHT22;34527;45.618;5.130;2022-11-13T11:18:59;10.60;99.90
48728;DHT22;34527;45.618;5.130;2022-11-13T11:21:31;10.70;99.90
48728;DHT22;34527;45.618;5.130;2022-11-13T11:24:08;10.70;99.90
48728;DHT22;34527;45.618;5.130;2022-11-13T11:29:32;10.90;99.90
48728;DHT22;34527;45.618;5.130;2022-11-13T11:34:58;11.10;99.90
48728;DHT22;34527;45.618;5.130;2022-11-13T11:37:38;11.10;99.90
48728;DHT22;34527;45.618;5.130;2022-11-13T11:40:05;11.10;99.90
48728;DHT22;34527;45.618;5.130;2022-11-13T11:45:33;11.20;99.90
48728;DHT22;34527;45.618;5.130;2022-11-13T11:48:01;11.30;99.90
48728;DHT22;34527;45.618;5.130;2022-11-13T12:01:44;11.10;99.90
48728;DHT22;34527;45.618;5.130;2022-11-13T12:07:21;11.40;99.90
48728;DHT22;34527;45.618;5.130;2022-11-13T12:25:51;11.50;99.90
48728;DHT22;34527;45.618;5.130;2022-11-13T12:28:29;11.40;99.90
48728;DHT22;34527;45.618;5.130;2022-11-13T12:36:25;11.60;99.90
48728;DHT22;34527;45.618;5.130;2022-11-13T12:44:56;11.90;99.90
48728;DHT22;34527;45.618;5.130;2022-11-13T12:47:25;11.90;99.90
48728;DHT22;34527;45.618;5.130;2022-11-13T12:50:03;12.00;99.90
48728;DHT22;34527;45.618;5.130;2022-11-13T12:52:30;12.00;99.90
48728;DHT22;34527;45.618;5.130;2022-11-13T12:55:24;11.90;99.90
48728;DHT22;34527;45.618;5.130;2022-11-13T12:57:50;11.90;99.90
48728;DHT22;34527;45.618;5.130;2022-11-13T13:00:25;11.70;99.90
48728;DHT22;34527;45.618;5.130;2022-11-13T13:03:18;11.60;99.90
48728;DHT22;34527;45.618;5.130;2022-11-13T13:06:12;11.60;99.90
48728;DHT22;34527;45.618;5.130;2022-11-13T13:11:23;11.50;99.90
48728;DHT22;34527;45.618;5.130;2022-11-13T13:19:39;11.70;99.90
48728;DHT22;34527;45.618;5.130;2022-11-13T13:22:29;11.70;99.90
48728;DHT22;34527;45.618;5.130;2022-11-13T13:25:02;11.80;99.90
48728;DHT22;34527;45.618;5.130;2022-11-13T13:27:37;11.80;99.90
48728;DHT22;34527;45.618;5.130;2022-11-13T13:30:22;11.80;99.90
48728;DHT22;34527;45.618;5.130;2022-11-13T13:33:36;11.80;99.90
48728;DHT22;34527;45.618;5.130;2022-11-13T13:45:18;11.80;99.90
48728;DHT22;34527;45.618;5.130;2022-11-13T13:47:50;11.80;99.90
48728;DHT22;34527;45.618;5.130;2022-11-13T13:50:33;11.90;99.90
48728;DHT22;34527;45.618;5.130;2022-11-13T13:53:03;11.90;99.90
48728;DHT22;34527;45.618;5.130;2022-11-13T13:55:31;11.90;99.90
48728;DHT22;34527;45.618;5.130;2022-11-13T13:57:58;11.90;99.90
48728;DHT22;34527;45.618;5.130;2022-11-13T14:00:25;11.80;99.90
48728;DHT22;34527;45.618;5.130;2022-11-13T14:02:52;11.70;99.90
48728;DHT22;34527;45.618;5.130;2022-11-13T14:05:33;11.70;99.90
48728;DHT22;34527;45.618;5.130;2022-11-13T14:07:59;11.80;99.90
48728;DHT22;34527;45.618;5.130;2022-11-13T14:10:28;11.80;99.90
48728;DHT22;34527;45.618;5.130;2022-11-13T14:12:55;11.80;99.90
48728;DHT22;34527;45.618;5.130;2022-11-13T14:15:32;11.80;99.90
48728;DHT22;34527;45.618;5.130;2022-11-13T14:18:12;11.80;99.90
48728;DHT22;34527;45.618;5.130;2022-11-13T14:20:50;11.90;99.90
48728;DHT22;34527;45.618;5.130;2022-11-13T14:23:24;12.00;99.90
48728;DHT22;34527;45.618;5.130;2022-11-13T14:25:53;12.10;99.90
48728;DHT22;34527;45.618;5.130;2022-11-13T14:28:26;12.10;99.90
48728;DHT22;34527;45.618;5.130;2022-11-13T14:30:58;12.00;99.90
48728;DHT22;34527;45.618;5.130;2022-11-13T14:33:43;12.10;99.90
48728;DHT22;34527;45.618;5.130;2022-11-13T14:36:11;12.10;99.90
48728;DHT22;34527;45.618;5.130;2022-11-13T14:38:41;12.10;99.90
48728;DHT22;34527;45.618;5.130;2022-11-13T14:41:52;12.10;99.90
48728;DHT22;34527;45.618;5.130;2022-11-13T14:44:27;12.20;99.90
48728;DHT22;34527;45.618;5.130;2022-11-13T14:47:04;12.30;99.90
48728;DHT22;34527;45.618;5.130;2022-11-13T14:49:36;12.40;99.90
48728;DHT22;34527;45.618;5.130;2022-11-13T14:52:02;12.40;99.90
48728;DHT22;34527;45.618;5.130;2022-11-13T14:54:34;12.40;99.90
48728;DHT22;34527;45.618;5.130;2022-11-13T14:57:12;12.40;99.90
48728;DHT22;34527;45.618;5.130;2022-11-13T14:59:39;12.40;99.90
48728;DHT22;34527;45.618;5.130;2022-11-13T15:02:10;12.50;99.90
48728;DHT22;34527;45.618;5.130;2022-11-13T15:04:36;12.50;99.90
48728;DHT22;34527;45.618;5.130;2022-11-13T15:07:26;12.60;99.90
48728;DHT22;34527;45.618;5.130;2022-11-13T15:09:52;12.60;99.90
48728;DHT22;34527;45.618;5.130;2022-11-13T15:12:18;12.70;99.90
48728;DHT22;34527;45.618;5.130;2022-11-13T15:14:44;12.70;99.90
48728;DHT22;34527;45.618;5.130;2022-11-13T15:17:15;12.70;99.90
48728;DHT22;34527;45.618;5.130;2022-11-13T15:19:42;12.70;99.90
48728;DHT22;34527;45.618;5.130;2022-11-13T15:22:12;12.60;99.90
48728;DHT22;34527;45.618;5.130;2022-11-13T15:24:38;12.50;99.90
48728;DHT22;34527;45.618;5.130;2022-11-13T15:27:04;12.50;99.90
48728;DHT22;34527;45.618;5.130;2022-11-13T15:29:31;12.40;99.90
48728;DHT22;34527;45.618;5.130;2022-11-13T15:31:57;12.30;99.90
48728;DHT22;34527;45.618;5.130;2022-11-13T15:34:23;12.20;99.90
48728;DHT22;34527;45.618;5.130;2022-11-13T15:36:48;12.10;99.90
48728;DHT22;34527;45.618;5.130;2022-11-13T15:39:14;12.10;99.90
48728;DHT22;34527;45.618;5.130;2022-11-13T15:41:40;12.10;99.90
48728;DHT22;34527;45.618;5.130;2022-11-13T15:44:12;12.20;99.90
48728;DHT22;34527;45.618;5.130;2022-11-13T15:46:38;12.30;99.90
48728;DHT22;34527;45.618;5.130;2022-11-13T15:49:04;12.30;99.90
48728;DHT22;34527;45.618;5.130;2022-11-13T15:51:42;12.30;99.90
48728;DHT22;34527;45.618;5.130;2022-11-13T15:54:24;12.30;99.90
48728;DHT22;34527;45.618;5.130;2022-11-13T15:56:51;12.30;99.90
48728;DHT22;34527;45.618;5.130;2022-11-13T15:59:17;12.20;99.90
48728;DHT22;34527;45.618;5.130;2022-11-13T16:01:42;12.20;99.90
48728;DHT22;34527;45.618;5.130;2022-11-13T16:04:09;12.30;99.90
48728;DHT22;34527;45.618;5.130;2022-11-13T16:06:38;12.30;99.90
48728;DHT22;34527;45.618;5.130;2022-11-13T16:09:05;12.40;99.90
48728;DHT22;34527;45.618;5.130;2022-11-13T16:11:34;12.20;99.90
48728;DHT22;34527;45.618;5.130;2022-11-13T16:14:00;12.20;99.90
48728;DHT22;34527;45.618;5.130;2022-11-13T16:16:39;12.00;99.90
48728;DHT22;34527;45.618;5.130;2022-11-13T16:19:13;12.00;99.90
48728;DHT22;34527;45.618;5.130;2022-11-13T16:21:40;11.90;99.90
48728;DHT22;34527;45.618;5.130;2022-11-13T16:24:07;11.90;99.90
48728;DHT22;34527;45.618;5.130;2022-11-13T16:26:33;11.90;99.90
48728;DHT22;34527;45.618;5.130;2022-11-13T16:28:59;11.80;99.90
48728;DHT22;34527;45.618;5.130;2022-11-13T16:31:25;11.80;99.90
48728;DHT22;34527;45.618;5.130;2022-11-13T16:33:51;11.80;99.90
48728;DHT22;34527;45.618;5.130;2022-11-13T16:36:18;11.80;99.90
48728;DHT22;34527;45.618;5.130;2022-11-13T16:38:45;11.80;99.90
48728;DHT22;34527;45.618;5.130;2022-11-13T16:41:13;12.00;99.90
48728;DHT22;34527;45.618;5.130;2022-11-13T16:43:39;12.20;99.90
48728;DHT22;34527;45.618;5.130;2022-11-13T16:48:51;12.40;99.90
48728;DHT22;34527;45.618;5.130;2022-11-13T16:51:16;12.40;99.90
48728;DHT22;34527;45.618;5.130;2022-11-13T16:53:42;12.50;99.90
48728;DHT22;34527;45.618;5.130;2022-11-13T16:56:16;12.60;99.90
48728;DHT22;34527;45.618;5.130;2022-11-13T16:58:42;12.70;99.90
48728;DHT22;34527;45.618;5.130;2022-11-13T17:01:16;12.80;99.90
48728;DHT22;34527;45.618;5.130;2022-11-13T17:03:43;13.00;99.90
48728;DHT22;34527;45.618;5.130;2022-11-13T17:06:30;13.00;99.90
48728;DHT22;34527;45.618;5.130;2022-11-13T17:08:57;13.20;99.90
48728;DHT22;34527;45.618;5.130;2022-11-13T17:11:24;13.30;99.90
48728;DHT22;34527;45.618;5.130;2022-11-13T17:13:53;13.40;99.90
48728;DHT22;34527;45.618;5.130;2022-11-13T17:16:20;13.40;99.90
48728;DHT22;34527;45.618;5.130;2022-11-13T17:18:46;13.50;99.90
48728;DHT22;34527;45.618;5.130;2022-11-13T17:21:16;13.60;99.90
48728;DHT22;34527;45.618;5.130;2022-11-13T17:23:42;13.70;99.90